Time;durP1;ratioP1;P1;durP2;ratioP2;P2;SDS_P1;SDS_P2;PMS_P1;PMS_P2;Temp;Humidity;BMP_temperature;BMP_pressure;BME280_temperature;BME280_humidity;BME280_pressure;Samples;Min_cycle;Max_cycle;Signal;HPM_P1;HPM_P2
2021/04/04 00:01:02;;;;;;;8.93;6.20;;;3.30;99.90;;;;;;5122458;28;21231;-84
2021/04/04 00:03:28;;;;;;;13.53;6.33;;;3.20;99.90;;;;;;5121667;28;20622;-84
2021/04/04 00:05:55;;;;;;;5.73;4.90;;;3.20;99.90;;;;;;5119570;28;20638;-85
2021/04/04 00:08:21;;;;;;;6.17;5.07;;;3.20;99.90;;;;;;5124217;28;20626;-85
2021/04/04 00:10:49;;;;;;;5.30;4.80;;;3.20;99.90;;;;;;5117455;28;21043;-86
2021/04/04 00:13:17;;;;;;;5.70;5.10;;;3.20;99.90;;;;;;5125232;28;20622;-86
2021/04/04 00:15:44;;;;;;;7.47;3.90;;;3.20;99.90;;;;;;5117159;27;20980;-85
2021/04/04 00:18:10;;;;;;;6.23;4.70;;;3.20;99.90;;;;;;5122801;27;20674;-86
2021/04/04 00:20:37;;;;;;;6.40;4.03;;;3.00;99.90;;;;;;5125780;27;20666;-84
2021/04/04 00:23:04;;;;;;;7.17;4.70;;;2.90;99.90;;;;;;5126131;27;20633;-84
2021/04/04 00:25:31;;;;;;;6.07;3.83;;;3.00;99.90;;;;;;5122643;27;21155;-85
2021/04/04 00:27:58;;;;;;;6.80;4.00;;;3.00;99.90;;;;;;5128816;27;20836;-84
2021/04/04 00:30:25;;;;;;;4.73;3.80;;;3.00;99.90;;;;;;5126156;27;20661;-84
2021/04/04 00:32:52;;;;;;;6.90;3.80;;;3.10;99.90;;;;;;5127948;27;20617;-84
2021/04/04 00:35:19;;;;;;;9.23;4.10;;;3.10;99.90;;;;;;5130866;27;20611;-86
2021/04/04 00:37:47;;;;;;;6.70;4.33;;;2.90;99.90;;;;;;5121903;27;20654;-87
2021/04/04 00:40:15;;;;;;;7.10;4.37;;;2.80;99.90;;;;;;5132828;27;20786;-85
2021/04/04 00:42:42;;;;;;;8.07;3.83;;;2.80;99.90;;;;;;5126006;27;20678;-85
2021/04/04 00:45:13;;;;;;;4.47;3.70;;;2.80;99.90;;;;;;5127898;27;20622;-85
2021/04/04 00:47:39;;;;;;;6.93;3.90;;;2.80;99.90;;;;;;5125790;27;20586;-85
2021/04/04 00:50:07;;;;;;;4.20;3.80;;;2.80;99.90;;;;;;5122894;27;21349;-85
2021/04/04 00:52:36;;;;;;;5.27;3.67;;;2.70;99.90;;;;;;5118120;27;21266;-85
2021/04/04 00:55:03;;;;;;;8.97;4.57;;;2.70;99.90;;;;;;5122376;27;20628;-85
2021/04/04 00:57:30;;;;;;;7.53;4.43;;;2.60;99.90;;;;;;5123009;27;20662;-85
2021/04/04 00:59:56;;;;;;;6.63;4.23;;;2.50;99.90;;;;;;5127081;27;21145;-85
2021/04/04 01:02:24;;;;;;;6.47;3.70;;;2.70;99.90;;;;;;5124175;27;20666;-84
2021/04/04 01:04:51;;;;;;;6.20;4.77;;;2.70;99.90;;;;;;5120578;27;20625;-85
2021/04/04 01:07:17;;;;;;;6.60;4.60;;;2.70;99.90;;;;;;5125350;27;21222;-85
2021/04/04 01:09:44;;;;;;;5.93;4.17;;;2.50;99.90;;;;;;5119841;27;20642;-85
2021/04/04 01:12:16;;;;;;;6.80;4.97;;;2.50;99.90;;;;;;5121598;27;20643;-86
2021/04/04 01:14:50;;;;;;;8.03;4.70;;;2.40;99.90;;;;;;5121474;27;21345;-84
2021/04/04 01:17:20;;;;;;;9.67;4.63;;;2.40;99.90;;;;;;5121460;27;22101;-84
2021/04/04 01:20:05;;;;;;;6.97;4.57;;;2.40;99.90;;;;;;5118180;27;20630;-86
2021/04/04 01:23:01;;;;;;;6.60;5.70;;;2.50;99.90;;;;;;5127679;27;21027;-86
2021/04/04 01:25:35;;;;;;;6.50;5.80;;;2.40;99.90;;;;;;5120717;27;20951;-86
2021/04/04 01:28:07;;;;;;;8.07;5.60;;;2.20;99.90;;;;;;5123193;27;21621;-86
2021/04/04 01:30:35;;;;;;;6.07;5.47;;;2.10;99.90;;;;;;5125460;27;20648;-85
2021/04/04 01:33:03;;;;;;;6.77;5.73;;;2.20;99.90;;;;;;5124215;27;20662;-84
2021/04/04 01:35:32;;;;;;;12.93;6.30;;;2.30;99.90;;;;;;5121757;27;21195;-85
2021/04/04 01:38:01;;;;;;;6.43;5.60;;;2.20;99.90;;;;;;5120435;27;20665;-87
2021/04/04 01:40:32;;;;;;;6.83;5.73;;;2.30;99.90;;;;;;5118599;27;20613;-86
2021/04/04 01:43:02;;;;;;;6.73;5.60;;;2.30;99.90;;;;;;5123790;27;20654;-86
2021/04/04 01:45:30;;;;;;;8.20;6.10;;;2.20;99.90;;;;;;5125828;27;21174;-85
2021/04/04 01:47:58;;;;;;;7.50;5.80;;;2.10;99.90;;;;;;5122949;27;20824;-84
2021/04/04 01:50:26;;;;;;;8.20;5.53;;;2.20;99.90;;;;;;5121143;27;20619;-87
2021/04/04 01:52:54;;;;;;;7.00;5.13;;;2.30;99.90;;;;;;5124806;27;20653;-85
2021/04/04 01:55:22;;;;;;;10.00;6.00;;;2.30;99.90;;;;;;5125554;27;20626;-85
2021/04/04 01:57:50;;;;;;;6.40;4.77;;;2.30;99.90;;;;;;5125121;27;20666;-85
2021/04/04 02:00:19;;;;;;;5.80;4.90;;;2.30;99.90;;;;;;5125669;27;20623;-85
2021/04/04 02:02:47;;;;;;;9.63;5.50;;;2.20;99.90;;;;;;5124499;27;20646;-84
2021/04/04 02:05:14;;;;;;;5.53;5.03;;;2.30;99.90;;;;;;5121913;27;20658;-84
2021/04/04 02:07:42;;;;;;;7.27;4.63;;;2.30;99.90;;;;;;5126848;27;20771;-85
2021/04/04 02:10:11;;;;;;;5.43;4.60;;;2.20;99.90;;;;;;5121861;27;20742;-86
2021/04/04 02:12:40;;;;;;;6.03;5.43;;;2.20;99.90;;;;;;5126037;27;20661;-86
2021/04/04 02:15:08;;;;;;;6.00;5.03;;;2.20;99.90;;;;;;5126034;27;21003;-86
2021/04/04 02:17:36;;;;;;;6.80;4.80;;;2.20;99.90;;;;;;5119151;27;21002;-86
2021/04/04 02:20:12;;;;;;;5.47;4.40;;;2.10;99.90;;;;;;5122472;27;21224;-85
2021/04/04 02:22:40;;;;;;;9.40;5.47;;;2.10;99.90;;;;;;5122872;27;20653;-85
2021/04/04 02:25:10;;;;;;;6.50;5.10;;;2.20;99.90;;;;;;5123810;27;21026;-85
2021/04/04 02:27:36;;;;;;;7.07;4.93;;;2.10;99.90;;;;;;5120378;27;22209;-85
2021/04/04 02:30:03;;;;;;;9.87;5.93;;;2.00;99.90;;;;;;5124422;27;20631;-85
2021/04/04 02:32:31;;;;;;;10.33;6.63;;;1.90;99.90;;;;;;5126418;27;20634;-85
2021/04/04 02:35:02;;;;;;;9.30;6.40;;;1.80;99.90;;;;;;5139152;27;20595;-85
2021/04/04 02:37:29;;;;;;;9.03;5.33;;;1.80;99.90;;;;;;5150695;27;20678;-84
2021/04/04 02:40:02;;;;;;;8.90;5.30;;;1.80;99.90;;;;;;5140140;27;20640;-85
2021/04/04 02:42:30;;;;;;;11.33;5.97;;;1.80;99.90;;;;;;5148251;27;20622;-85
2021/04/04 02:45:00;;;;;;;10.60;5.30;;;1.80;99.90;;;;;;5146838;27;20694;-85
2021/04/04 02:47:33;;;;;;;6.73;5.73;;;1.80;99.90;;;;;;5136354;27;20624;-85
2021/04/04 02:50:01;;;;;;;10.30;7.03;;;1.80;99.90;;;;;;5125138;27;20670;-85
2021/04/04 02:52:33;;;;;;;7.50;5.23;;;1.80;99.90;;;;;;5127552;27;20669;-85
2021/04/04 02:55:00;;;;;;;7.13;6.03;;;1.70;99.90;;;;;;5123708;27;20634;-85
2021/04/04 02:57:34;;;;;;;6.73;5.80;;;1.90;99.90;;;;;;5123377;27;20650;-85
2021/04/04 03:00:05;;;;;;;6.87;6.20;;;1.80;99.90;;;;;;5119840;27;20618;-85
2021/04/04 03:02:31;;;;;;;6.43;5.70;;;1.80;99.90;;;;;;5119358;27;21273;-85
2021/04/04 03:05:01;;;;;;;5.53;4.87;;;1.60;99.90;;;;;;5120914;27;20641;-84
2021/04/04 03:07:28;;;;;;;8.30;5.90;;;1.50;99.90;;;;;;5122986;27;20630;-84
2021/04/04 03:09:57;;;;;;;9.83;5.80;;;1.40;99.90;;;;;;5114003;27;21102;-84
2021/04/04 03:12:26;;;;;;;9.87;5.57;;;1.50;99.90;;;;;;5119588;27;20654;-84
2021/04/04 03:14:57;;;;;;;8.77;6.30;;;1.50;99.90;;;;;;5120272;27;20679;-85
2021/04/04 03:17:24;;;;;;;9.47;6.67;;;1.50;99.90;;;;;;5117015;27;20662;-84
2021/04/04 03:19:52;;;;;;;8.70;5.63;;;1.60;99.90;;;;;;5123220;27;20607;-84
2021/04/04 03:22:20;;;;;;;8.20;6.30;;;1.50;99.90;;;;;;5119279;27;20658;-85
2021/04/04 03:24:48;;;;;;;8.73;5.97;;;1.50;99.90;;;;;;5118575;27;20585;-85
2021/04/04 03:27:17;;;;;;;6.03;5.53;;;1.60;99.90;;;;;;5124202;27;20606;-84
2021/04/04 03:29:45;;;;;;;9.67;5.30;;;1.50;99.90;;;;;;5119537;27;20638;-84
2021/04/04 03:32:11;;;;;;;6.30;5.40;;;1.40;99.90;;;;;;5117112;27;20654;-85
2021/04/04 03:34:38;;;;;;;7.10;5.73;;;1.40;99.90;;;;;;5121613;27;20632;-84
2021/04/04 03:37:04;;;;;;;7.07;5.70;;;1.30;99.90;;;;;;5118535;27;20665;-85
2021/04/04 03:39:32;;;;;;;8.87;6.17;;;1.40;99.90;;;;;;5121284;27;21211;-87
2021/04/04 03:42:01;;;;;;;7.77;5.40;;;1.40;99.90;;;;;;5117482;27;20658;-87
2021/04/04 03:44:31;;;;;;;7.30;5.23;;;1.30;99.90;;;;;;5121716;28;20641;-85
2021/04/04 03:46:58;;;;;;;8.90;5.40;;;1.30;99.90;;;;;;5124668;27;20614;-86
2021/04/04 03:49:25;;;;;;;9.77;5.63;;;1.30;99.90;;;;;;5119323;28;20926;-85
2021/04/04 03:51:55;;;;;;;6.90;5.50;;;1.20;99.90;;;;;;5123228;27;20652;-87
2021/04/04 03:54:23;;;;;;;5.90;4.70;;;1.20;99.90;;;;;;5127290;27;20587;-85
2021/04/04 03:56:51;;;;;;;6.83;4.77;;;1.10;99.90;;;;;;5122319;27;20706;-87
2021/04/04 03:59:22;;;;;;;5.97;5.00;;;1.10;99.90;;;;;;5122673;27;21011;-85
2021/04/04 04:01:51;;;;;;;7.60;4.80;;;1.30;99.90;;;;;;5120573;27;21050;-85
2021/04/04 04:04:19;;;;;;;5.47;4.50;;;1.40;99.90;;;;;;5124359;27;21248;-85
2021/04/04 04:06:48;;;;;;;9.60;5.70;;;1.50;99.90;;;;;;5127320;27;20613;-85
2021/04/04 04:09:15;;;;;;;8.20;4.80;;;1.40;99.90;;;;;;5124993;27;20646;-86
2021/04/04 04:11:44;;;;;;;6.60;4.37;;;1.30;99.90;;;;;;5127253;27;20659;-85
2021/04/04 04:14:15;;;;;;;10.83;4.33;;;1.30;99.90;;;;;;5132157;27;20626;-86
2021/04/04 04:16:42;;;;;;;6.40;4.57;;;1.20;99.90;;;;;;5129803;27;20654;-87
2021/04/04 04:19:10;;;;;;;5.57;4.27;;;1.20;99.90;;;;;;5124143;27;20985;-86
2021/04/04 04:21:38;;;;;;;6.57;3.90;;;1.10;99.90;;;;;;5125176;27;21302;-86
2021/04/04 04:24:07;;;;;;;8.47;5.33;;;1.00;99.90;;;;;;5119675;27;21046;-85
2021/04/04 04:26:35;;;;;;;6.00;4.93;;;1.10;99.90;;;;;;5126659;27;20629;-86
2021/04/04 04:29:02;;;;;;;8.60;5.03;;;1.10;99.90;;;;;;5122758;27;20684;-85
2021/04/04 04:31:35;;;;;;;6.20;5.57;;;1.10;99.90;;;;;;5134094;27;20609;-84
2021/04/04 04:34:05;;;;;;;8.10;5.00;;;1.10;99.90;;;;;;5124919;27;20695;-86
2021/04/04 04:36:33;;;;;;;8.63;6.03;;;1.10;99.90;;;;;;5122738;27;20915;-86
2021/04/04 04:39:02;;;;;;;7.73;4.97;;;1.10;99.90;;;;;;5124084;27;20607;-86
2021/04/04 04:41:32;;;;;;;8.10;5.93;;;1.00;99.90;;;;;;5118396;27;20623;-86
2021/04/04 04:44:01;;;;;;;14.70;6.70;;;1.00;99.90;;;;;;5126135;27;21083;-86
2021/04/04 04:46:28;;;;;;;7.37;5.63;;;1.10;99.90;;;;;;5126014;27;20638;-86
2021/04/04 04:48:54;;;;;;;16.60;7.43;;;1.00;99.90;;;;;;5126753;27;21179;-85
2021/04/04 04:51:23;;;;;;;7.90;7.10;;;1.10;99.90;;;;;;5122349;27;20976;-85
2021/04/04 04:53:51;;;;;;;7.17;6.33;;;1.10;99.90;;;;;;5129796;27;20918;-84
2021/04/04 04:56:20;;;;;;;9.10;6.90;;;1.10;99.90;;;;;;5132382;27;20626;-84
2021/04/04 04:58:47;;;;;;;8.43;6.87;;;1.00;99.90;;;;;;5134410;27;20703;-84
2021/04/04 05:01:16;;;;;;;8.23;7.23;;;1.00;99.90;;;;;;5133425;27;20636;-84
2021/04/04 05:03:42;;;;;;;9.80;7.37;;;0.90;99.90;;;;;;5118755;27;20610;-85
2021/04/04 05:06:11;;;;;;;7.83;7.00;;;1.00;99.90;;;;;;5115473;27;20611;-84
2021/04/04 05:08:38;;;;;;;10.73;8.43;;;1.00;99.90;;;;;;5121584;27;20725;-84
2021/04/04 05:11:07;;;;;;;8.93;7.90;;;1.00;99.90;;;;;;5118661;27;21201;-85
2021/04/04 05:13:37;;;;;;;8.80;5.40;;;1.00;99.90;;;;;;5124110;27;20702;-86
2021/04/04 05:16:07;;;;;;;14.60;7.07;;;0.90;99.90;;;;;;5124499;27;20623;-85
2021/04/04 05:18:34;;;;;;;8.50;7.53;;;1.00;99.90;;;;;;5122551;27;20654;-85
2021/04/04 05:21:00;;;;;;;10.20;7.40;;;1.00;99.90;;;;;;5121176;27;20676;-85
2021/04/04 05:23:26;;;;;;;11.73;8.27;;;1.00;99.90;;;;;;5123691;27;20646;-86
2021/04/04 05:25:54;;;;;;;8.77;7.27;;;0.90;99.90;;;;;;5128275;27;20622;-86
2021/04/04 05:28:22;;;;;;;8.47;7.17;;;0.90;99.90;;;;;;5124429;27;20621;-85
2021/04/04 05:30:48;;;;;;;9.03;6.67;;;1.00;99.90;;;;;;5123623;27;20630;-86
2021/04/04 05:33:15;;;;;;;10.63;6.40;;;1.10;99.90;;;;;;5127630;27;20661;-87
2021/04/04 05:35:43;;;;;;;9.63;6.87;;;1.30;99.90;;;;;;5118918;27;20649;-86
2021/04/04 05:38:11;;;;;;;12.80;7.63;;;1.20;99.90;;;;;;5123622;27;20658;-86
2021/04/04 05:40:38;;;;;;;11.77;6.23;;;1.30;99.90;;;;;;5120690;27;20954;-86
2021/04/04 05:43:12;;;;;;;7.43;6.60;;;1.30;99.90;;;;;;5123974;27;20759;-86
2021/04/04 05:45:46;;;;;;;7.47;6.67;;;1.30;99.90;;;;;;5123424;27;20657;-87
2021/04/04 05:48:21;;;;;;;10.63;7.30;;;1.30;99.90;;;;;;5125319;27;20618;-85
2021/04/04 05:51:05;;;;;;;8.07;7.27;;;1.40;99.90;;;;;;5111335;27;20633;-85
2021/04/04 05:53:41;;;;;;;8.07;6.50;;;1.50;99.90;;;;;;5119454;27;20650;-85
2021/04/04 05:56:16;;;;;;;12.20;8.10;;;1.60;99.90;;;;;;5124850;27;20654;-85
2021/04/04 05:58:49;;;;;;;10.73;6.87;;;1.60;99.90;;;;;;5120051;27;20960;-85
2021/04/04 06:01:36;;;;;;;8.83;6.97;;;1.60;99.90;;;;;;5131748;27;20619;-85
2021/04/04 06:04:28;;;;;;;9.43;6.47;;;1.60;99.90;;;;;;5148543;27;20595;-86
2021/04/04 06:07:05;;;;;;;10.37;6.67;;;1.60;99.90;;;;;;5147666;27;20617;-85
2021/04/04 06:09:49;;;;;;;8.00;7.27;;;1.80;99.90;;;;;;5145321;27;20666;-85
2021/04/04 06:12:23;;;;;;;9.10;7.53;;;1.90;99.90;;;;;;5138556;27;20642;-85
2021/04/04 06:15:02;;;;;;;7.40;6.70;;;2.00;99.90;;;;;;5128906;27;20614;-85
2021/04/04 06:17:34;;;;;;;11.73;7.97;;;2.10;99.90;;;;;;5127693;27;20680;-86
2021/04/04 06:20:14;;;;;;;13.33;8.37;;;2.30;99.90;;;;;;5127537;27;20831;-86
2021/04/04 06:22:51;;;;;;;11.07;8.27;;;2.40;99.90;;;;;;5130280;27;21051;-86
2021/04/04 06:25:30;;;;;;;8.70;7.80;;;2.50;99.90;;;;;;5121145;27;20633;-87
2021/04/04 06:28:05;;;;;;;9.57;6.93;;;2.60;99.90;;;;;;5120158;27;20615;-85
2021/04/04 06:30:49;;;;;;;8.23;7.37;;;2.80;99.90;;;;;;5124435;27;20678;-86
2021/04/04 06:33:22;;;;;;;10.17;7.20;;;2.90;99.90;;;;;;5128709;27;20638;-86
2021/04/04 06:36:05;;;;;;;9.10;7.27;;;2.90;99.90;;;;;;5126002;27;20591;-85
2021/04/04 06:39:03;;;;;;;7.90;7.10;;;2.90;99.90;;;;;;5123105;27;20700;-84
2021/04/04 06:41:45;;;;;;;8.07;7.27;;;2.90;99.90;;;;;;5122674;27;21104;-84
2021/04/04 06:44:30;;;;;;;9.13;7.90;;;2.90;99.90;;;;;;5120649;27;20614;-85
2021/04/04 06:47:00;;;;;;;8.80;7.07;;;3.10;99.90;;;;;;5120682;27;20619;-87
2021/04/04 06:49:35;;;;;;;8.90;8.00;;;3.20;99.90;;;;;;5118978;27;21153;-87
2021/04/04 06:52:14;;;;;;;11.77;7.60;;;3.30;99.90;;;;;;5127939;27;20706;-86
2021/04/04 06:54:52;;;;;;;9.63;7.47;;;3.50;99.90;;;;;;5128438;27;21168;-87
2021/04/04 06:57:38;;;;;;;9.40;8.00;;;3.60;99.90;;;;;;5123708;27;20998;-87
2021/04/04 07:00:09;;;;;;;8.27;7.53;;;3.80;99.90;;;;;;5117887;27;21201;-88
2021/04/04 07:02:44;;;;;;;9.00;7.57;;;3.80;99.90;;;;;;5127316;27;21140;-89
2021/04/04 07:05:14;;;;;;;10.23;7.80;;;4.00;99.90;;;;;;5124325;27;20633;-85
2021/04/04 07:07:59;;;;;;;9.03;7.60;;;4.10;99.90;;;;;;5126186;27;20630;-88
2021/04/04 07:10:39;;;;;;;9.67;7.70;;;4.20;99.90;;;;;;5126996;27;20642;-86
2021/04/04 07:13:32;;;;;;;10.73;7.03;;;4.30;99.90;;;;;;5125403;27;21006;-90
2021/04/04 07:16:18;;;;;;;9.80;8.77;;;4.70;99.90;;;;;;5124607;27;20629;-87
2021/04/04 07:19:16;;;;;;;8.93;8.03;;;5.00;99.90;;;;;;5120753;27;20659;-88
2021/04/04 07:22:07;;;;;;;9.80;7.60;;;5.20;99.90;;;;;;5101257;27;20665;-89
2021/04/04 07:24:54;;;;;;;9.30;7.40;;;5.40;99.90;;;;;;5129254;27;21339;-88
2021/04/04 07:27:32;;;;;;;10.67;7.73;;;5.30;99.90;;;;;;5132155;27;20618;-88
2021/04/04 07:33:08;;;;;;;9.33;8.43;;;5.50;99.40;;;;;;5134189;27;20727;-89
2021/04/04 07:35:41;;;;;;;8.67;7.70;;;5.60;99.60;;;;;;5126835;27;20603;-88
2021/04/04 07:38:15;;;;;;;9.70;7.83;;;5.80;99.20;;;;;;5125009;27;20666;-89
2021/04/04 07:40:52;;;;;;;8.70;7.73;;;6.10;99.00;;;;;;5131856;27;20610;-91
2021/04/04 07:43:30;;;;;;;8.77;7.20;;;6.20;98.60;;;;;;5146481;27;20656;-90
2021/04/04 07:46:09;;;;;;;10.03;8.63;;;6.20;98.70;;;;;;5134274;28;20634;-89
2021/04/04 07:48:49;;;;;;;8.83;8.07;;;6.60;98.20;;;;;;5131164;28;20627;-89
2021/04/04 07:51:20;;;;;;;7.73;7.03;;;6.80;97.30;;;;;;5127102;28;20647;-90
2021/04/04 07:54:15;;;;;;;9.30;8.40;;;7.00;96.90;;;;;;5135455;28;20622;-89
2021/04/04 07:56:50;;;;;;;7.40;6.80;;;7.30;96.60;;;;;;5132559;27;20643;-90
2021/04/04 07:59:26;;;;;;;7.20;6.50;;;7.40;96.50;;;;;;5140387;28;20578;-90
2021/04/04 08:01:58;;;;;;;7.93;7.10;;;7.50;96.50;;;;;;5145328;28;20626;-90
2021/04/04 08:04:33;;;;;;;10.80;7.80;;;7.60;96.20;;;;;;5132539;28;20630;-88
2021/04/04 08:07:18;;;;;;;8.50;7.10;;;7.60;96.00;;;;;;5137304;28;20619;-91
2021/04/04 08:09:52;;;;;;;7.97;7.17;;;7.60;96.20;;;;;;5134815;28;20647;-89
2021/04/04 08:12:41;;;;;;;11.43;7.20;;;8.00;96.10;;;;;;5130165;27;20666;-91
2021/04/04 08:15:16;;;;;;;10.13;7.30;;;8.20;95.20;;;;;;5135721;28;20622;-89
2021/04/04 08:17:42;;;;;;;8.37;6.73;;;8.40;95.20;;;;;;5138956;28;20650;-91
2021/04/04 08:20:17;;;;;;;9.30;7.47;;;8.70;95.00;;;;;;5130985;28;21025;-91
2021/04/04 08:22:49;;;;;;;11.07;7.10;;;9.00;94.50;;;;;;5128467;27;20724;-90
2021/04/04 08:25:22;;;;;;;7.73;6.90;;;9.10;93.80;;;;;;5131121;28;20627;-91
2021/04/04 08:27:55;;;;;;;7.87;7.07;;;9.20;93.90;;;;;;5129131;27;20659;-90
2021/04/04 08:30:28;;;;;;;7.20;6.47;;;9.40;93.30;;;;;;5127221;28;20622;-90
2021/04/04 08:33:01;;;;;;;9.13;6.47;;;9.60;92.90;;;;;;5123721;28;21231;-92
2021/04/04 08:35:30;;;;;;;8.80;7.33;;;9.70;92.20;;;;;;5123363;28;20959;-92
2021/04/04 08:38:05;;;;;;;7.30;6.60;;;9.90;92.20;;;;;;5128539;27;20723;-91
2021/04/04 08:40:33;;;;;;;9.60;6.73;;;10.00;90.90;;;;;;5136017;27;21168;-91
2021/04/04 08:43:03;;;;;;;9.40;7.10;;;10.00;91.10;;;;;;5150798;27;20633;-91
2021/04/04 08:45:35;;;;;;;9.90;8.07;;;10.10;90.70;;;;;;5135601;27;21084;-91
2021/04/04 08:48:03;;;;;;;7.23;6.13;;;10.20;90.60;;;;;;5130949;27;20625;-91
2021/04/04 08:50:33;;;;;;;8.53;5.80;;;10.40;90.10;;;;;;5124440;27;20620;-92
2021/04/04 08:53:10;;;;;;;8.43;6.20;;;10.70;89.30;;;;;;5125300;27;20647;-89
2021/04/04 08:55:40;;;;;;;12.07;6.33;;;10.70;88.50;;;;;;5127724;27;20643;-90
2021/04/04 08:58:09;;;;;;;5.67;5.03;;;10.80;87.70;;;;;;5132875;27;20673;-91
2021/04/04 09:00:40;;;;;;;10.03;6.70;;;10.80;89.10;;;;;;5128591;27;20587;-90
2021/04/04 09:03:11;;;;;;;8.83;7.13;;;11.00;89.10;;;;;;5128932;27;20650;-91
2021/04/04 09:05:39;;;;;;;7.83;5.10;;;11.10;88.40;;;;;;5128055;27;20615;-90
2021/04/04 09:08:06;;;;;;;8.53;5.00;;;11.40;87.80;;;;;;5122874;27;20598;-91
2021/04/04 09:10:34;;;;;;;5.70;5.17;;;11.50;84.90;;;;;;5125703;27;20646;-91
2021/04/04 09:13:10;;;;;;;7.10;5.00;;;11.30;83.20;;;;;;5143684;27;20649;-91
2021/04/04 09:15:47;;;;;;;7.70;5.23;;;11.40;83.10;;;;;;5141409;27;20638;-90
2021/04/04 09:18:16;;;;;;;10.20;5.47;;;11.30;81.20;;;;;;5140981;27;21069;-91
2021/04/04 09:20:47;;;;;;;7.23;6.53;;;11.60;82.80;;;;;;5129580;27;20626;-89
2021/04/04 09:23:16;;;;;;;7.20;5.40;;;11.70;81.70;;;;;;5131191;27;20654;-90
2021/04/04 09:25:52;;;;;;;8.00;5.37;;;12.20;81.40;;;;;;5125900;27;20626;-90
2021/04/04 09:28:20;;;;;;;5.20;4.53;;;12.30;82.10;;;;;;5129297;27;20625;-90
2021/04/04 09:30:48;;;;;;;8.60;5.57;;;12.20;78.50;;;;;;5124245;27;20630;-90
2021/04/04 09:33:17;;;;;;;7.30;4.80;;;12.10;78.30;;;;;;5131098;27;20653;-92
2021/04/04 09:35:54;;;;;;;7.87;5.07;;;11.60;79.00;;;;;;5131960;27;20643;-90
2021/04/04 09:38:21;;;;;;;5.97;5.37;;;11.70;79.20;;;;;;5133912;27;20645;-92
2021/04/04 09:40:48;;;;;;;7.23;5.03;;;11.40;79.60;;;;;;5128933;27;20690;-90
2021/04/04 09:43:16;;;;;;;9.40;5.80;;;11.20;82.00;;;;;;5129920;27;20674;-90
2021/04/04 09:45:44;;;;;;;7.70;4.20;;;11.50;80.10;;;;;;5130727;27;20610;-89
2021/04/04 09:48:19;;;;;;;7.60;4.10;;;11.60;78.60;;;;;;5119486;27;20627;-90
2021/04/04 09:50:46;;;;;;;4.57;4.17;;;12.00;77.00;;;;;;5127566;27;20662;-91
2021/04/04 09:53:34;;;;;;;7.03;4.40;;;12.70;72.80;;;;;;5128866;27;20647;-91
2021/04/04 09:56:05;;;;;;;6.83;4.13;;;12.30;73.50;;;;;;5130893;27;20626;-91
2021/04/04 09:58:33;;;;;;;10.20;4.23;;;12.50;75.70;;;;;;5119977;27;21239;-91
2021/04/04 10:01:02;;;;;;;5.00;4.47;;;13.00;73.00;;;;;;5128621;27;21002;-90
2021/04/04 10:03:28;;;;;;;4.93;4.40;;;12.20;72.20;;;;;;5128435;27;20617;-90
2021/04/04 10:05:54;;;;;;;6.30;4.20;;;12.00;71.60;;;;;;5128787;27;20644;-91
2021/04/04 10:08:23;;;;;;;6.40;4.83;;;11.50;72.40;;;;;;5131064;27;20633;-91
2021/04/04 10:10:52;;;;;;;7.77;4.67;;;11.80;72.30;;;;;;5120852;27;21152;-93
2021/04/04 10:13:26;;;;;;;5.10;4.03;;;11.80;72.60;;;;;;5131593;27;20696;-93
2021/04/04 10:16:01;;;;;;;4.47;3.90;;;12.10;70.20;;;;;;5124137;27;20627;-91
2021/04/04 10:18:31;;;;;;;4.50;4.03;;;12.30;68.70;;;;;;5128966;27;20654;-91
2021/04/04 10:20:59;;;;;;;4.73;3.97;;;12.80;67.40;;;;;;5129538;27;20669;-95
2021/04/04 10:23:29;;;;;;;4.90;4.37;;;13.10;67.20;;;;;;5133105;27;20618;-92
2021/04/04 10:26:02;;;;;;;4.10;3.20;;;13.20;66.60;;;;;;5129623;27;20642;-93
2021/04/04 10:28:42;;;;;;;4.17;3.07;;;13.30;64.00;;;;;;5132739;27;20598;-92
2021/04/04 10:31:10;;;;;;;4.20;2.60;;;12.70;61.10;;;;;;5148153;27;20598;-93
2021/04/04 10:33:38;;;;;;;2.60;2.40;;;12.50;59.70;;;;;;5131150;27;21091;-93
2021/04/04 10:36:14;;;;;;;3.43;2.33;;;12.90;60.90;;;;;;5129022;27;20695;-93
2021/04/04 10:38:40;;;;;;;4.10;2.30;;;13.40;56.40;;;;;;5128934;27;20662;-95
2021/04/04 10:41:08;;;;;;;4.40;2.13;;;13.80;55.60;;;;;;5129273;27;20622;-96
2021/04/04 10:43:38;;;;;;;3.97;2.50;;;14.40;54.40;;;;;;5123705;27;21037;-94
2021/04/04 10:46:07;;;;;;;3.43;2.50;;;14.90;54.50;;;;;;5129926;27;20634;-93
2021/04/04 10:48:36;;;;;;;3.13;2.10;;;15.20;52.00;;;;;;5126606;27;20657;-94
2021/04/04 10:51:04;;;;;;;5.57;2.20;;;15.00;50.90;;;;;;5126250;27;20629;-94
2021/04/04 10:53:31;;;;;;;2.60;2.33;;;14.70;52.30;;;;;;5122986;27;20614;-93
2021/04/04 10:55:59;;;;;;;7.30;2.70;;;14.10;51.80;;;;;;5126332;27;20629;-93
2021/04/04 10:58:26;;;;;;;7.30;2.80;;;13.90;53.70;;;;;;5127996;27;20665;-95
2021/04/04 11:00:55;;;;;;;4.33;2.80;;;14.40;51.80;;;;;;5128946;27;20613;-92
2021/04/04 11:03:22;;;;;;;3.47;2.53;;;14.60;52.60;;;;;;5135160;27;20650;-94
2021/04/04 11:05:49;;;;;;;3.07;2.10;;;14.80;51.80;;;;;;5126892;27;21070;-94
2021/04/04 11:08:20;;;;;;;2.73;2.40;;;14.50;51.30;;;;;;5124526;27;20721;-93
2021/04/04 11:10:48;;;;;;;3.20;2.90;;;14.40;52.40;;;;;;5131937;27;20648;-92
2021/04/04 11:13:15;;;;;;;2.67;2.30;;;14.40;50.80;;;;;;5139172;27;20642;-94
2021/04/04 11:15:48;;;;;;;3.23;2.57;;;15.10;51.80;;;;;;5136998;27;20630;-94
2021/04/04 11:18:19;;;;;;;4.23;3.33;;;15.40;51.20;;;;;;5146693;27;20647;-95
2021/04/04 11:20:48;;;;;;;3.57;3.27;;;15.40;49.10;;;;;;5144090;27;20614;-94
2021/04/04 11:23:23;;;;;;;4.27;2.60;;;14.90;48.70;;;;;;5141596;27;20662;-95
2021/04/04 11:25:52;;;;;;;3.87;2.87;;;15.20;49.30;;;;;;5142748;27;20704;-96
2021/04/04 11:28:24;;;;;;;4.83;2.60;;;15.80;50.40;;;;;;5126624;28;20981;-95
2021/04/04 11:30:55;;;;;;;3.33;2.97;;;15.70;50.60;;;;;;5149783;27;20663;-94
2021/04/04 11:33:31;;;;;;;3.97;2.97;;;15.80;49.30;;;;;;5152399;27;20634;-94
2021/04/04 11:36:10;;;;;;;4.37;2.50;;;15.80;48.70;;;;;;5150868;27;20597;-94
2021/04/04 11:38:58;;;;;;;3.43;2.07;;;16.10;48.80;;;;;;5153076;27;20658;-95
2021/04/04 11:41:30;;;;;;;3.37;2.57;;;16.20;48.60;;;;;;5144394;27;20688;-95
2021/04/04 11:44:30;;;;;;;4.07;3.10;;;16.60;48.00;;;;;;5152235;27;20619;-93
2021/04/04 11:47:07;;;;;;;3.87;3.30;;;17.20;47.70;;;;;;5145396;27;20648;-96
2021/04/04 11:49:44;;;;;;;3.73;3.07;;;17.20;47.40;;;;;;5147697;27;20697;-94
2021/04/04 11:52:38;;;;;;;4.20;3.30;;;17.10;47.20;;;;;;5147257;28;20639;-94
2021/04/04 11:55:10;;;;;;;5.20;3.10;;;17.10;46.50;;;;;;5147160;28;20602;-94
2021/04/04 11:57:47;;;;;;;5.10;3.37;;;17.30;47.10;;;;;;5148275;27;20677;-96
2021/04/04 12:00:21;;;;;;;4.20;2.93;;;16.80;46.90;;;;;;5150037;28;20607;-94
2021/04/04 12:03:04;;;;;;;5.37;4.20;;;15.90;47.40;;;;;;5151862;28;20629;-95
2021/04/04 12:06:14;;;;;;;4.03;2.60;;;16.70;46.90;;;;;;5144815;28;20632;-96
2021/04/04 12:08:42;;;;;;;4.00;2.90;;;16.80;47.90;;;;;;5143614;28;20606;-96
2021/04/04 12:11:12;;;;;;;5.17;3.27;;;17.60;47.70;;;;;;5150471;27;20634;-95
2021/04/04 12:13:39;;;;;;;3.57;3.07;;;18.40;46.30;;;;;;5151142;27;20640;-93
2021/04/04 12:16:07;;;;;;;4.23;3.30;;;18.20;46.10;;;;;;5151524;27;20631;-94
2021/04/04 12:18:34;;;;;;;4.30;2.70;;;18.20;46.80;;;;;;5142736;27;20653;-95
2021/04/04 12:21:01;;;;;;;5.43;3.17;;;17.90;45.40;;;;;;5142777;27;20618;-93
2021/04/04 12:26:20;;;;;;;3.70;2.73;;;16.40;45.60;;;;;;5130720;27;20745;-94
2021/04/04 12:28:46;;;;;;;5.20;2.70;;;17.10;46.20;;;;;;5132641;27;20635;-94
2021/04/04 12:31:14;;;;;;;3.53;3.00;;;17.50;45.10;;;;;;5133995;27;20620;-94
2021/04/04 12:33:42;;;;;;;4.47;3.00;;;18.30;44.10;;;;;;5134882;27;20639;-95
2021/04/04 12:36:09;;;;;;;5.00;3.30;;;18.60;43.50;;;;;;5137410;27;21214;-95
2021/04/04 12:38:37;;;;;;;4.93;3.20;;;19.10;43.00;;;;;;5141570;27;20642;-95
2021/04/04 12:41:03;;;;;;;3.40;3.00;;;18.70;42.80;;;;;;5151953;27;20742;-95
2021/04/04 12:43:41;;;;;;;3.50;3.00;;;19.10;41.30;;;;;;5158665;27;20630;-96
2021/04/04 12:46:10;;;;;;;3.90;3.37;;;19.70;41.20;;;;;;5152504;27;20678;-95
2021/04/04 12:48:40;;;;;;;3.47;2.50;;;19.40;41.70;;;;;;5138076;27;20684;-95
2021/04/04 12:51:07;;;;;;;3.60;3.10;;;20.50;40.80;;;;;;5148347;27;20613;-96
2021/04/04 12:53:36;;;;;;;4.77;3.73;;;19.80;40.60;;;;;;5151589;27;20643;-94
2021/04/04 12:56:04;;;;;;;3.83;3.50;;;19.50;40.60;;;;;;5154857;27;20641;-95
2021/04/04 12:58:41;;;;;;;4.90;3.73;;;19.00;41.10;;;;;;5142385;27;20717;-95
2021/04/04 13:01:14;;;;;;;7.43;3.10;;;19.70;40.90;;;;;;5144329;27;20966;-93
2021/04/04 13:03:41;;;;;;;4.70;3.73;;;19.10;40.80;;;;;;5133509;27;20610;-96
2021/04/04 13:06:07;;;;;;;4.10;3.50;;;19.30;41.20;;;;;;5124230;27;20695;-94
2021/04/04 13:08:36;;;;;;;5.40;3.23;;;20.00;42.40;;;;;;5126799;27;20657;-96
2021/04/04 13:11:04;;;;;;;6.80;3.73;;;20.10;41.60;;;;;;5133065;27;20689;-95
2021/04/04 13:13:43;;;;;;;4.07;3.00;;;20.70;41.10;;;;;;5134760;27;20713;-95
2021/04/04 13:16:14;;;;;;;5.03;3.30;;;20.60;40.40;;;;;;5133717;27;20661;-96
2021/04/04 13:18:51;;;;;;;3.93;3.27;;;20.90;39.90;;;;;;5133998;27;20662;-96
2021/04/04 13:21:20;;;;;;;4.13;3.70;;;20.40;39.40;;;;;;5124151;27;20696;-95